Weingarten Realty Investors (WRI) Latest Bloomsberg Price


Mffais Ranking #2051 Overall / #78 Industry
Industry: Reit

Number of Companies: 238 (Ranking #683 Overall/#37 Industry)
Inflow: $ 85,521 (K) (Ranking #1039 Overall/#57 Industry)
Outflow: $ -104,713 (K)
Mffais Flow: $ -19,192 (K) (Ranking #2051 Overall/#78 Industry)


Receive a FREE weekly executive review of stocks moving into the top 10, taking the top industy spot or moving up within their industry. Sent directly to your Inbox every Saturday. Sign up today and get last week's review immediately sent to you.

We value and respect your privacy. Please read our Terms and Conditions which states our firm commitment to your privacy. Your email address will not be shared with a third party, nor will it be sold or used for purposes other than subscription for the weekly review.

Owner CPOR Shares Action Qty Chg Invested (K) Total Current Value (K)
Cbre Clarion Securities Llc 2016-09-30 2,682,350 Added More 485,066 $ 20,518 $ 113,463
Echo Street Capital Management Llc 2016-09-30 253,781 New Holding 253,781 $ 10,734 $ 10,734
Uniplan Investment Counsel Inc 2016-09-30 980,539 Added More 117,930 $ 4,988 $ 41,476
Nuveen Asset Management Llc 2016-09-30 353,758 Added More 117,270 $ 4,960 $ 14,963
Hermes Investment Management Ltd 2016-09-30 1,085,395 Added More 76,720 $ 3,245 $ 45,912
Putnam Investments Llc 2016-09-30 99,533 Added More 74,133 $ 3,135 $ 4,210
First Quadrant L P Ca 2016-09-30 72,093 New Holding 72,093 $ 3,049 $ 3,049
Cubist Systematic Strategies Llc 2016-09-30 68,999 Added More 63,310 $ 2,678 $ 2,918
Wbi Investments Inc 2016-09-30 58,324 New Holding 58,324 $ 2,467 $ 2,467
Walleye Trading Llc 2016-09-30 56,111 New Holding 56,111 $ 2,373 $ 2,373
Blackrock Inc 2016-09-30 424,302 Added More 53,467 $ 2,261 $ 17,947
Globeflex Capital L P 2016-09-30 48,794 New Holding 48,794 $ 2,063 $ 2,063
Pictet Asset Management Ltd 2016-09-30 48,521 New Holding 48,521 $ 2,052 $ 2,052
Northern Trust Corp 2016-09-30 2,035,080 Added More 45,305 $ 1,916 $ 86,083
Panagora Asset Management Inc 2016-09-30 361,805 Added More 41,865 $ 1,770 $ 15,304
Fisher Asset Management Llc 2016-09-30 127,573 Added More 30,400 $ 1,285 $ 5,396
Gideon Capital Advisors Inc 2016-09-30 27,515 New Holding 27,515 $ 1,163 $ 1,163
Princeton Alpha Management Lp 2016-09-30 31,745 Added More 26,118 $ 1,104 $ 1,342
Legal General Group Plc 2016-09-30 662,995 Added More 21,481 $ 908 $ 28,044
Jane Street Group Llc 2016-09-30 20,936 New Holding 20,936 $ 885 $ 885
Naples Global Advisors Llc 2016-09-30 20,250 New Holding 20,250 $ 856 $ 856
Dimensional Fund Advisors Lp 2016-09-30 1,597,776 Added More 16,487 $ 697 $ 67,585
Twin Capital Management Inc 2016-09-30 50,050 Added More 16,250 $ 687 $ 2,117
Squarepoint Ops Llc 2016-09-30 14,745 New Holding 14,745 $ 623 $ 623
Twin Tree Management Lp 2016-09-30 14,500 New Holding 14,500 $ 613 $ 613
Mizuho Asset Management Co Ltd 2016-09-30 42,400 Added More 12,300 $ 520 $ 1,793
Trust Co Of Toledo Na Oh 2016-09-30 11,661 New Holding 11,661 $ 493 $ 493
Stevens Capital Management Lp 2016-09-30 16,500 Added More 10,490 $ 443 $ 697
Fox Run Management L L C 2016-09-30 10,400 New Holding 10,400 $ 439 $ 439
Rhumbline Advisers 2016-09-30 224,764 Added More 9,435 $ 399 $ 9,507
I G Investment Management Ltd 2016-09-30 13,481 Added More 7,772 $ 328 $ 570
Dynamic Technology Lab Private Ltd 2016-09-30 7,155 New Holding 7,155 $ 302 $ 302
Quantbot Technologies Lp 2016-09-30 17,506 Added More 6,894 $ 291 $ 740
Mizuho Trust Banking Co Ltd 2016-09-30 29,021 Added More 6,740 $ 285 $ 1,227
Advisors Asset Management Inc 2016-09-30 13,747 Added More 6,662 $ 281 $ 581
Blackrock Investment Management Llc 2016-09-30 346,900 Added More 6,105 $ 258 $ 14,673
Sumitomo Mitsui Asset Management Company Ltd 2016-09-30 5,945 New Holding 5,945 $ 251 $ 251
Blackrock Japan Co Ltd 2016-09-30 87,680 Added More 5,611 $ 237 $ 3,708
Kbc Group Nv 2016-09-30 59,020 Added More 5,526 $ 233 $ 2,496
Veritable L P 2016-09-30 13,602 Added More 5,467 $ 231 $ 575
Kcg Holdings Inc 2016-09-30 12,750 Added More 5,128 $ 216 $ 539
Fifth Third Bancorp 2016-09-30 53,490 Added More 4,996 $ 211 $ 2,262
American International Group Inc 2016-09-30 227,245 Added More 3,552 $ 150 $ 9,612
Harrison Street Securities Llc 2016-09-30 18,956 Added More 3,374 $ 142 $ 801
Point72 Asia Hong Kong Ltd 2016-09-30 3,400 Added More 3,300 $ 139 $ 143
Aviva Plc 2016-09-30 70,629 Added More 3,208 $ 135 $ 2,987
Retirement Systems Of Alabama 2016-09-30 151,551 Added More 2,636 $ 111 $ 6,410
Mutual Of America Capital Management Llc 2016-09-30 88,180 Added More 2,520 $ 106 $ 3,730
Bokf Na 2016-09-30 14,463 Added More 2,517 $ 106 $ 611
Parametric Portfolio Associates Llc 2016-09-30 122,040 Added More 2,504 $ 105 $ 5,162
Comerica Bank 2016-09-30 86,169 Added More 2,286 $ 96 $ 3,644
Sei Investments Co 2016-09-30 12,826 Added More 2,261 $ 95 $ 542
Profund Advisors Llc 2016-09-30 20,992 Added More 2,212 $ 93 $ 887
World Asset Management Inc 2016-09-30 10,521 Added More 2,120 $ 89 $ 445
California State Teachers Retirement System 2016-09-30 255,573 Added More 2,100 $ 88 $ 10,810
Callahan Advisors Llc 2016-09-30 134,740 Added More 2,095 $ 88 $ 5,699
Liberty Mutual Group Asset Management Inc 2016-09-30 51,402 Added More 1,898 $ 80 $ 2,174
Thrivent Financial For Lutherans 2016-09-30 65,582 Added More 1,850 $ 78 $ 2,774
Mason Street Advisors Llc 2016-09-30 54,414 Added More 1,768 $ 74 $ 2,301
Oregon Public Employees Retirement Fund 2016-09-30 39,789 Added More 1,742 $ 73 $ 1,683
Peak6 Investments L P 2016-09-30 7,194 Added More 1,694 $ 71 $ 304
Pacer Advisors Inc 2016-09-30 16,841 Added More 1,672 $ 70 $ 712
Next Financial Group Inc 2016-09-30 1,830 Added More 1,630 $ 68 $ 77
Avalon Advisors Llc 2016-09-30 331,871 Added More 1,507 $ 63 $ 14,038
Nomura Asset Management Co Ltd 2016-09-30 73,810 Added More 1,480 $ 62 $ 3,122
Aperio Group Llc 2016-09-30 27,736 Added More 1,451 $ 61 $ 1,173
Woodmont Investment Counsel Llc 2016-09-30 1,400 New Holding 1,400 $ 59 $ 59
Texas Permanent School Fund 2016-09-30 89,591 Added More 1,321 $ 55 $ 3,789
Eqis Capital Management Inc 2016-09-30 10,994 Added More 1,317 $ 55 $ 465
Strs Ohio 2016-09-30 170,593 Added More 1,231 $ 52 $ 7,216
Raymond James Associates 2016-09-30 8,598 Added More 1,230 $ 52 $ 363
Bbva Compass Bancshares Inc 2016-09-30 10,129 Added More 1,229 $ 51 $ 428
Bb T Securities Llc 2016-09-30 14,521 Added More 1,103 $ 46 $ 614
Us Bancorp De 2016-09-30 22,697 Added More 1,021 $ 43 $ 960
State Treasurer State Of Michigan 2016-09-30 47,300 Added More 1,000 $ 42 $ 2,000
Shinko Asset Management Co Ltd 2016-09-30 5,388,252 Added More 952 $ 40 $ 227,923
Arizona State Retirement System 2016-09-30 52,320 Added More 900 $ 38 $ 2,213
Tower Research Capital Llc Trc 2016-09-30 4,560 Added More 793 $ 33 $ 192
Ifp Advisors Inc 2016-09-30 11,061 Added More 642 $ 27 $ 467
Ls Investment Advisors Llc 2016-09-30 7,518 Added More 534 $ 22 $ 318
Nichols Pratt Advisers Llp Ma 2016-09-30 6,200 Added More 450 $ 19 $ 262
Fuller Thaler Asset Management Inc 2016-09-30 445 New Holding 445 $ 18 $ 18
Ftb Advisors Inc 2016-09-30 1,495 Added More 400 $ 16 $ 63
Adell Harriman Carpenter Inc 2016-09-30 9,755 Added More 341 $ 14 $ 412
Cwm Llc 2016-09-30 340 New Holding 340 $ 14 $ 14
Northwestern Mutual Investment Management Company Llc 2016-09-30 20,252 Added More 322 $ 13 $ 856
Sigma Planning Corp 2016-09-30 5,700 Added More 298 $ 12 $ 241
Cadence Capital Management Llc 2016-09-30 6,074 Added More 288 $ 12 $ 256
M T Bank Corp 2016-09-30 25,322 Added More 257 $ 10 $ 1,071
Commonwealth Equity Services Inc 2016-09-30 8,042 Added More 255 $ 10 $ 340
Advisor Group Inc 2016-09-30 4,218 Added More 187 $ 7 $ 178
Investment Counselors Of Maryland Llc 2016-09-30 4,176 Added More 155 $ 6 $ 176
Creative Planning 2016-09-30 7,688 Added More 129 $ 5 $ 325
Cypress Asset Management Inc Tx 2016-09-30 9,933 Added More 125 $ 5 $ 420
Ladenburg Thalmann Financial Services Inc 2016-09-30 1,538 Added More 48 $ 2 $ 65
Ct Financial Advisors Llc 2016-09-30 4,077 Added More 13 $ 0 $ 172
Weaver C Barksdale Associates Inc 2016-09-30 69 Added More 5 $ 0 $ 2
Northwestern Mutual Wealth Management Co 2016-09-30 166 Added More 4 $ 0 $ 7
Msi Financial Services Inc 2016-09-30 510 Added More 2 $ 0 $ 21
Vantage Investment Advisors Llc 2016-09-30 158 Added More 1 $ 0 $ 6
Tortoise Investment Management Llc 2016-09-30 225 No Change 0 $ 0 $ 9
Commonwealth Bank Of Australia 2016-09-30 4,986 No Change 0 $ 0 $ 210
Teachers Insurance Annuity Association Of America 2016-09-30 121,612 No Change 0 $ 0 $ 5,144
Gofen Glossberg Llc Il 2016-09-30 7,500 No Change 0 $ 0 $ 317
Teachers Retirement System Of The State Of Kentucky 2016-09-30 27,300 No Change 0 $ 0 $ 1,154
Foresters Investment Management Company Inc 2016-09-30 5,185 No Change 0 $ 0 $ 219
First Manhattan Co 2016-09-30 2,450 No Change 0 $ 0 $ 103
James Investment Research Inc 2016-09-30 66 No Change 0 $ 0 $ 2
Anchor Capital Advisors Llc 2016-09-30 8,700 No Change 0 $ 0 $ 368
Amica Mutual Insurance Co 2016-09-30 10,677 No Change 0 $ 0 $ 451
Amica Pension Fund Board Of Trustees 2016-09-30 8,244 No Change 0 $ 0 $ 348
Delta Asset Management Llc Tn 2016-09-30 900 No Change 0 $ 0 $ 38
New Mexico Educational Retirement Board 2016-09-30 17,592 No Change 0 $ 0 $ 744
Burnham Asset Management Corp Ny 2016-06-30 10,000 No Change 0 $ 0 $ 408
Jacobs Levy Equity Management Inc 2016-09-30 28,220 No Change 0 $ 0 $ 1,193
Folger Nolan Fleming Douglas Capital Management Inc 2016-09-30 81,777 No Change 0 $ 0 $ 3,459
American National Insurance Co Tx 2016-09-30 94,465 No Change 0 $ 0 $ 3,995
Shelton Capital Management 2016-09-30 10,777 No Change 0 $ 0 $ 455
Segall Bryant Hamill Llc 2016-09-30 6,175 No Change 0 $ 0 $ 261
Smithfield Trust Co 2016-09-30 2,500 No Change 0 $ 0 $ 105
Cibc Asset Management Inc 2016-09-30 7,307 No Change 0 $ 0 $ 309
Enterprise Financial Services Corp 2016-09-30 236 No Change 0 $ 0 $ 9
Oakbrook Investments Llc 2016-09-30 5,965 No Change 0 $ 0 $ 252
Moody National Bank Trust Division 2016-09-30 15,930 No Change 0 $ 0 $ 673
First Interstate Bank 2016-09-30 950 No Change 0 $ 0 $ 40
Cookson Peirce Co Inc 2016-09-30 28,210 No Change 0 $ 0 $ 1,193
Westwood Holdings Group Inc 2016-09-30 5,586 No Change 0 $ 0 $ 236
Rmr Advisors Llc 2016-09-30 76,500 No Change 0 $ 0 $ 3,235
Alpine Woods Capital Investors Llc 2016-09-30 15,130 No Change 0 $ 0 $ 639
Silvercrest Asset Management Group Llc 2016-09-30 14,465 No Change 0 $ 0 $ 611
Whittier Trust Co Of Nevada Inc 2016-09-30 900 No Change 0 $ 0 $ 38
American National Bank 2016-09-30 275 No Change 0 $ 0 $ 11
Pensionfund Dsm Netherlands 2016-09-30 45,336 No Change 0 $ 0 $ 1,917
Kimelman Baird Llc 2016-06-30 27,524 No Change 0 $ 0 $ 1,123
State Of Alaska Department Of Revenue 2016-09-30 44,170 No Change 0 $ 0 $ 1,868
Blb B Advisors Llc 2016-09-30 13,446 No Change 0 $ 0 $ 568
Barnett Company Inc 2016-09-30 1,000 No Change 0 $ 0 $ 42
Sandy Spring Bank 2016-09-30 900 No Change 0 $ 0 $ 38
Old Mutual Customised Solutions Proprietary Ltd 2016-09-30 4,400 No Change 0 $ 0 $ 186
Mitsubishi Ufj Kokusai Asset Management Co Ltd 2016-09-30 19,014 No Change 0 $ 0 $ 804
Qs Investors Llc 2016-09-30 3,710 No Change 0 $ 0 $ 156
American Research Management Co 2016-09-30 2,750 No Change 0 $ 0 $ 116
American National Registered Investment Advisor Inc 2016-09-30 16,450 No Change 0 $ 0 $ 695
Wfg Advisors Lp 2016-09-30 1,318 No Change 0 $ 0 $ 55
Cutler Group Lp 2016-09-30 195 No Change 0 $ 0 $ 8
Hanson Mcclain Inc 2016-06-30 116 No Change 0 $ 0 $ 4
Amica Retiree Medical Trust 2016-09-30 1,273 No Change 0 $ 0 $ 53
Gemmer Asset Management Llc 2016-09-30 72 No Change 0 $ 0 $ 3
Exane Derivatives 2016-09-30 1 No Change 0 $ 0 $ 0
Pensionfund Sabic 2016-09-30 17,314 No Change 0 $ 0 $ 732
Zions Bancorporation 2016-09-30 2,000 No Change 0 $ 0 $ 84
Bridgewater Wealth Financial Management Llc 2016-09-30 9,940 No Change 0 $ 0 $ 420
Quadrant Capital Group Llc 2016-09-30 203 No Change 0 $ 0 $ 8
Proficio Capital Partners Llc 2016-09-30 55 No Change 0 $ 0 $ 2
Armbruster Capital Management Inc 2016-09-30 105 No Change 0 $ 0 $ 4
Cribstone Capital Management Llc 2016-09-30 1,981 No Change 0 $ 0 $ 83
Segment Wealth Management Llc 2016-09-30 72,530 Sold Some -1 $ -0 $ 3,068
Cornerstone Advisors Inc 2016-09-30 180 Sold Some -22 $ -0 $ 7
Dean Investment Associates Llc 2016-09-30 82,935 Sold Some -22 $ -0 $ 3,508
Telos Capital Management Inc 2016-09-30 11,795 Sold Some -55 $ -2 $ 498
Chevy Chase Trust Holdings Inc 2016-09-30 6,584 Sold Some -58 $ -2 $ 278
Salient Trust Co Lta 2016-09-30 35,133 Sold Some -66 $ -2 $ 1,486
Envestnet Asset Management Inc 2016-09-30 31,042 Sold Some -114 $ -4 $ 1,313
Loring Wolcott Coolidge Fiduciary Advisors Llp Ma 2016-09-30 19,282 Sold Some -126 $ -5 $ 815
Rkl Wealth Management Llc 2016-09-30 13,909 Sold Some -145 $ -6 $ 588
New York Life Trust Co 2016-09-30 0 Sold All -165 $ -6 $ 0
Advantus Capital Management Inc 2016-09-30 416,013 Sold Some -168 $ -7 $ 17,597
Central Trust Co 2016-09-30 4,321 Sold Some -179 $ -7 $ 182
Autus Asset Management Llc 2016-09-30 16,560 Sold Some -180 $ -7 $ 700
Howe Rusling Inc 2016-09-30 350 Sold Some -190 $ -8 $ 14
Alps Advisors Inc 2016-09-30 12,552 Sold Some -194 $ -8 $ 530
Financial Management Professionals Inc 2016-09-30 675 Sold Some -219 $ -9 $ 28
Oshaughnessy Asset Management Llc 2016-09-30 0 Sold All -249 $ -10 $ 0
Atlanta Capital Group 2016-09-30 18,464 Sold Some -261 $ -11 $ 781
Utah Retirement Systems 2016-09-30 27,544 Sold Some -300 $ -12 $ 1,165
Synovus Financial Corp 2016-09-30 5,077 Sold Some -348 $ -14 $ 214
Boston Advisors Llc 2016-09-30 14,975 Sold Some -465 $ -19 $ 633
New York State Teachers Retirement System 2016-09-30 230,300 Sold Some -600 $ -25 $ 9,741
Chilton Capital Management Llc 2016-09-30 305,131 Sold Some -649 $ -27 $ 12,907
Independent Order Of Foresters 2016-09-30 9,328 Sold Some -670 $ -28 $ 394
Checchi Capital Advisers Llc 2016-09-30 0 Sold All -720 $ -30 $ 0
Assetmark Inc 2016-09-30 0 Sold All -723 $ -30 $ 0
Ibm Retirement Fund 2016-09-30 11,023 Sold Some -739 $ -31 $ 466
Diam Co Ltd 2016-09-30 267,882 Sold Some -819 $ -34 $ 11,331
Kemper Corp Master Retirement Trust 2016-09-30 8,675 Sold Some -950 $ -40 $ 366
Sumitomo Mitsui Trust Holdings Inc 2016-09-30 88,278 Sold Some -1,234 $ -52 $ 3,734
Kanaly Trust Co 2016-09-30 45,755 Sold Some -1,456 $ -61 $ 1,935
Invictus Rg 2016-09-30 0 Sold All -1,496 $ -63 $ 0
Axa 2016-09-30 0 Sold All -1,881 $ -79 $ 0
Dupont Capital Management Corp 2016-09-30 46,552 Sold Some -1,980 $ -83 $ 1,969
Schaper Benz Wise Investment Counsel Inc Wi 2016-09-30 142,381 Sold Some -2,100 $ -88 $ 6,022
Zurcher Kantonalbank Zurich Cantonalbank 2016-09-30 31,673 Sold Some -2,579 $ -109 $ 1,339
United Capital Financial Advisers Llc 2016-09-30 11,573 Sold Some -2,943 $ -124 $ 489
Linscomb Williams Inc 2016-09-30 35,094 Sold Some -2,997 $ -126 $ 1,484
Tudor Investment Corp Et Al 2016-09-30 10,494 Sold Some -3,159 $ -133 $ 443
Proshare Advisors Llc 2016-09-30 35,588 Sold Some -3,943 $ -166 $ 1,505
Presima Inc 2016-09-30 74,800 Sold Some -4,100 $ -173 $ 3,164
Swiss National Bank 2016-09-30 194,000 Sold Some -4,800 $ -203 $ 8,206
Baird Financial Group Inc 2016-09-30 0 Sold All -4,995 $ -211 $ 0
Rafferty Asset Management Llc 2016-09-30 7,483 Sold Some -5,052 $ -213 $ 316
Fort Washington Investment Advisors Inc Oh 2016-09-30 9,500 Sold Some -5,100 $ -215 $ 401
Salient Capital Advisors Llc 2016-09-30 0 Sold All -5,124 $ -216 $ 0
Hightower Advisors Llc 2016-09-30 7,299 Sold Some -5,146 $ -217 $ 308
Teacher Retirement System Of Texas 2016-09-30 136,716 Sold Some -6,113 $ -258 $ 5,783
Amp Capital Investors Ltd 2016-09-30 65,344 Sold Some -6,400 $ -270 $ 2,764
Pnc Financial Services Group Inc 2016-09-30 7,695 Sold Some -7,022 $ -297 $ 325
Martingale Asset Management L P 2016-09-30 13,957 Sold Some -7,400 $ -313 $ 590
Qcm Cayman Ltd 2016-09-30 0 Sold All -7,489 $ -316 $ 0
Hsbc Holdings Plc 2016-09-30 23,375 Sold Some -7,787 $ -329 $ 988
Nationwide Fund Advisors 2016-09-30 524,277 Sold Some -9,672 $ -409 $ 22,176
Two Sigma Securities Llc 2016-09-30 0 Sold All -11,512 $ -486 $ 0
Verition Fund Management Llc 2016-09-30 5,638 Sold Some -11,627 $ -491 $ 238
Dekabank Deutsche Girozentrale 2016-09-30 12,200 Sold Some -12,200 $ -516 $ 516
Ramsey Quantitative Systems 2016-09-30 0 Sold All -14,813 $ -626 $ 0
Nisa Investment Advisors Llc 2016-09-30 70,630 Sold Some -15,000 $ -634 $ 2,987
State Of Tennessee Treasury Department 2016-09-30 57,900 Sold Some -20,000 $ -846 $ 2,449
Spot Trading L L C 2016-09-30 0 Sold All -20,051 $ -848 $ 0
Kempen Capital Management N V 2016-09-30 45,377 Sold Some -21,036 $ -889 $ 1,919
Quantitative Investment Management Llc 2016-09-30 5,900 Sold Some -21,300 $ -900 $ 249
Cornerstone Capital Management Holdings Llc 2016-09-30 63,489 Sold Some -21,695 $ -917 $ 2,685
Mackenzie Financial Corp 2016-09-30 0 Sold All -22,911 $ -969 $ 0
Stifel Financial Corp 2016-09-30 521,181 Sold Some -24,483 $ -1,035 $ 22,045
Sanders Morris Harris Inc 2016-09-30 0 Sold All -25,350 $ -1,072 $ 0
Guggenheim Capital Llc 2016-09-30 196,717 Sold Some -28,692 $ -1,213 $ 8,321
Sg Americas Securities Llc 2016-09-30 36,084 Sold Some -32,672 $ -1,382 $ 1,526
Gsa Capital Partners Llp 2016-09-30 0 Sold All -33,590 $ -1,420 $ 0
Teachers Advisors Inc 2016-09-30 550,422 Sold Some -34,958 $ -1,478 $ 23,282
Convergence Investment Partners Llc 2016-09-30 0 Sold All -34,997 $ -1,480 $ 0
New York State Common Retirement Fund 2016-09-30 252,800 Sold Some -35,400 $ -1,497 $ 10,693
Connor Clark Lunn Investment Management Ltd 2016-09-30 0 Sold All -35,600 $ -1,505 $ 0
Cipher Capital Lp 2016-09-30 0 Sold All -39,026 $ -1,650 $ 0
Nn Investment Partners Holdings N V 2016-09-30 1,127,584 Sold Some -41,000 $ -1,734 $ 47,696
Employees Retirement System Of Texas 2016-09-30 103,000 Sold Some -72,000 $ -3,045 $ 4,356
Richard Bernstein Advisors Llc 2016-09-30 0 Sold All -85,097 $ -3,599 $ 0
Security Capital Research Management Inc 2016-09-30 808,921 Sold Some -87,045 $ -3,682 $ 34,217
Emerald Acquisition Ltd 2016-09-30 243,939 Sold Some -240,234 $ -10,161 $ 10,318
United States Steel Carnegie Pension Fund 2016-09-30 1,543,748 Sold Some -346,159 $ -14,642 $ 65,300
Royal London Asset Management Ltd 2016-06-30 40,004 Sold Some -1,000,696 $ -40,848 $ 1,632